createdAt,value
2022-10-07T00:00:57.904Z,56.18
2022-10-07T00:03:26.815Z,57.29
2022-10-07T00:06:16.767Z,57.02
2022-10-07T00:08:47.330Z,57.70
2022-10-07T00:11:21.783Z,57.27
2022-10-07T00:13:53.053Z,58.31
2022-10-07T00:16:26.736Z,58.82
2022-10-07T00:18:57.858Z,57.82
2022-10-07T00:21:30.898Z,59.15
2022-10-07T00:23:59.034Z,58.40
2022-10-07T00:26:29.176Z,59.89
2022-10-07T00:28:57.420Z,59.81
2022-10-07T00:31:30.159Z,60.11
2022-10-07T00:33:58.774Z,59.44
2022-10-07T00:36:29.661Z,60.73
2022-10-07T00:38:59.692Z,60.33
2022-10-07T00:41:33.332Z,62.00
2022-10-07T00:44:22.070Z,60.64
2022-10-07T00:46:50.680Z,59.46
2022-10-07T00:49:18.294Z,59.95
2022-10-07T00:51:46.510Z,59.19
2022-10-07T00:54:17.262Z,60.56
2022-10-07T00:56:47.827Z,61.22
2022-10-07T00:59:17.465Z,61.16
2022-10-07T01:01:45.194Z,60.96
2022-10-07T01:04:15.223Z,61.38
2022-10-07T01:06:43.315Z,60.96
2022-10-07T01:09:13.336Z,61.71
2022-10-07T01:11:57.581Z,64.05
2022-10-07T01:15:01.250Z,63.67
2022-10-07T01:17:35.155Z,61.54
2022-10-07T01:20:33.461Z,63.52
2022-10-07T01:23:09.177Z,62.41
2022-10-07T01:26:04.548Z,63.25
2022-10-07T01:28:38.553Z,62.11
2022-10-07T01:31:10.363Z,62.11
2022-10-07T01:33:40.058Z,61.35
2022-10-07T01:36:15.170Z,62.52
2022-10-07T01:38:50.210Z,61.60
2022-10-07T01:41:20.372Z,61.89
2022-10-07T01:43:49.337Z,61.61
2022-10-07T01:46:22.444Z,59.40
2022-10-07T01:48:51.972Z,58.07
2022-10-07T01:51:24.464Z,57.30
2022-10-07T01:54:16.398Z,56.37
2022-10-07T01:56:52.834Z,56.40
2022-10-07T01:59:27.058Z,56.58
2022-10-07T02:02:16.845Z,58.13
2022-10-07T02:05:05.827Z,58.76
2022-10-07T02:07:43.028Z,58.89
2022-10-07T02:10:24.515Z,58.87
2022-10-07T02:13:16.909Z,59.80
2022-10-07T02:16:09.523Z,59.65
2022-10-07T02:18:39.431Z,54.00
2022-10-07T02:21:10.118Z,56.82
2022-10-07T02:23:41.488Z,57.85
2022-10-07T02:26:13.578Z,58.33
2022-10-07T02:28:43.990Z,58.07
2022-10-07T02:31:18.198Z,57.21
2022-10-07T02:33:47.537Z,58.02
2022-10-07T02:36:21.845Z,60.14
2022-10-07T02:38:49.796Z,61.00
2022-10-07T02:41:31.703Z,62.94
2022-10-07T02:44:15.965Z,61.35
2022-10-07T02:46:51.179Z,61.69
2022-10-07T02:49:23.592Z,60.58
2022-10-07T02:52:00.172Z,61.65
2022-10-07T02:54:39.642Z,63.78
2022-10-07T02:57:09.359Z,64.17
2022-10-07T02:59:40.832Z,64.25
2022-10-07T03:02:13.171Z,65.00
2022-10-07T03:04:40.702Z,64.15
2022-10-07T03:07:09.856Z,64.32
2022-10-07T03:09:37.876Z,64.08
2022-10-07T03:12:06.075Z,64.19
2022-10-07T03:14:36.026Z,63.85
2022-10-07T03:17:04.188Z,63.09
2022-10-07T03:19:31.797Z,63.43
2022-10-07T03:22:00.289Z,63.51
2022-10-07T03:24:28.703Z,62.19
2022-10-07T03:26:56.767Z,62.22
2022-10-07T03:29:26.380Z,62.37
2022-10-07T03:31:55.651Z,61.78
2022-10-07T03:34:24.003Z,62.15
2022-10-07T03:36:51.477Z,62.40
2022-10-07T03:39:18.998Z,61.68
2022-10-07T03:41:50.382Z,61.07
2022-10-07T03:44:19.720Z,60.46
2022-10-07T03:46:51.867Z,61.79
2022-10-07T03:49:21.458Z,60.88
2022-10-07T03:51:48.883Z,59.94
2022-10-07T03:54:16.396Z,58.39
2022-10-07T03:56:43.823Z,58.12
2022-10-07T03:59:11.297Z,57.57
2022-10-07T04:01:40.044Z,57.45
2022-10-07T04:04:07.990Z,57.46
2022-10-07T04:06:39.127Z,57.52
2022-10-07T04:09:14.027Z,57.98
2022-10-07T04:11:42.407Z,57.51
2022-10-07T04:14:10.386Z,56.78
2022-10-07T04:16:39.529Z,57.11
2022-10-07T04:19:09.402Z,57.03
2022-10-07T04:21:36.848Z,57.31
2022-10-07T04:24:04.895Z,57.53
2022-10-07T04:26:32.572Z,57.04
2022-10-07T04:29:00.387Z,57.38
2022-10-07T04:31:28.474Z,57.02
2022-10-07T04:34:04.050Z,56.44
2022-10-07T04:36:35.975Z,56.37
2022-10-07T04:39:07.290Z,56.60
2022-10-07T04:41:37.564Z,56.81
2022-10-07T04:44:09.107Z,56.94
2022-10-07T04:46:42.458Z,56.79
2022-10-07T04:49:13.766Z,56.88
2022-10-07T04:51:41.674Z,56.95
2022-10-07T04:54:09.655Z,56.86
2022-10-07T04:56:49.215Z,56.10
2022-10-07T04:59:21.303Z,55.93
2022-10-07T05:01:51.090Z,56.00
2022-10-07T05:04:18.638Z,55.41
2022-10-07T05:06:47.194Z,54.79
2022-10-07T05:09:15.623Z,54.82
2022-10-07T05:11:46.827Z,53.74
2022-10-07T05:14:21.622Z,52.58
2022-10-07T05:16:51.902Z,52.38
2022-10-07T05:19:22.141Z,51.17
2022-10-07T05:21:50.051Z,50.56
2022-10-07T05:24:17.872Z,50.19
2022-10-07T05:26:45.331Z,50.10
2022-10-07T05:29:12.798Z,49.81
2022-10-07T05:31:46.743Z,49.80
2022-10-07T05:34:17.231Z,49.16
2022-10-07T05:36:44.779Z,49.25
2022-10-07T05:39:13.175Z,49.00
2022-10-07T05:41:59.170Z,48.91
2022-10-07T05:44:33.466Z,48.17
2022-10-07T05:47:03.425Z,47.54
2022-10-07T05:49:32.038Z,47.65
2022-10-07T05:52:00.168Z,48.84
2022-10-07T05:54:27.597Z,47.28
2022-10-07T05:56:56.678Z,46.34
2022-10-07T05:59:24.661Z,45.37
2022-10-07T06:01:52.356Z,45.37
2022-10-07T06:04:21.734Z,44.22
2022-10-07T06:06:52.134Z,43.14
2022-10-07T06:09:38.810Z,42.93
2022-10-07T06:12:30.999Z,42.84
2022-10-07T06:15:00.502Z,41.79
2022-10-07T06:17:28.282Z,40.09
2022-10-07T06:19:58.840Z,39.45
2022-10-07T06:22:26.950Z,38.36
2022-10-07T06:24:58.093Z,37.63
2022-10-07T06:27:26.388Z,37.19
2022-10-07T06:29:55.308Z,36.76
2022-10-07T06:32:22.942Z,37.23
2022-10-07T06:34:50.880Z,37.22
2022-10-07T06:37:18.454Z,37.51
2022-10-07T06:39:46.580Z,37.55
2022-10-07T06:42:14.230Z,37.70
2022-10-07T06:45:04.336Z,37.34
2022-10-07T06:47:32.040Z,37.04
2022-10-07T06:49:59.426Z,36.72
2022-10-07T06:52:26.835Z,36.92
2022-10-07T06:54:55.199Z,36.98
2022-10-07T06:57:45.820Z,36.70
2022-10-07T07:00:11.808Z,37.12
2022-10-07T07:02:39.509Z,37.44
2022-10-07T07:05:08.857Z,37.98
2022-10-07T07:07:38.459Z,38.02
2022-10-07T07:10:07.543Z,37.80
2022-10-07T07:12:38.157Z,38.09
2022-10-07T07:15:06.402Z,38.37
2022-10-07T07:17:34.102Z,38.73
2022-10-07T07:20:01.846Z,38.98
2022-10-07T07:22:31.420Z,38.87
2022-10-07T07:24:59.310Z,38.67
2022-10-07T07:27:26.750Z,38.63
2022-10-07T07:29:54.271Z,38.22
2022-10-07T07:32:21.816Z,37.89
2022-10-07T07:34:49.727Z,37.50
2022-10-07T07:37:20.959Z,37.70
2022-10-07T07:39:52.277Z,38.10
2022-10-07T07:42:19.763Z,38.21
2022-10-07T07:44:48.589Z,38.70
2022-10-07T07:47:17.626Z,38.72
2022-10-07T07:49:46.758Z,39.01
2022-10-07T07:52:21.291Z,39.02
2022-10-07T07:54:51.998Z,39.07
2022-10-07T07:57:19.860Z,38.86
2022-10-07T07:59:47.620Z,38.91
2022-10-07T08:02:18.243Z,38.90
2022-10-07T08:04:49.377Z,38.67
2022-10-07T08:07:17.568Z,39.07
2022-10-07T08:09:47.239Z,39.25
2022-10-07T08:12:15.091Z,39.48
2022-10-07T08:14:43.635Z,39.46
2022-10-07T08:17:12.980Z,39.41
2022-10-07T08:19:40.976Z,39.29
2022-10-07T08:22:09.740Z,39.31
2022-10-07T08:24:37.985Z,39.57
2022-10-07T08:27:05.667Z,39.68
2022-10-07T08:29:33.243Z,39.66
2022-10-07T08:32:00.721Z,40.19
2022-10-07T08:34:28.107Z,40.15
2022-10-07T08:36:56.477Z,40.15
2022-10-07T08:39:24.948Z,39.68
2022-10-07T08:42:13.713Z,39.88
2022-10-07T08:44:44.974Z,39.47
2022-10-07T08:47:31.207Z,39.77
2022-10-07T08:50:16.659Z,39.72
2022-10-07T08:53:08.720Z,40.20
2022-10-07T08:56:07.609Z,39.94
2022-10-07T08:58:57.290Z,40.38
2022-10-07T09:01:55.728Z,40.87
2022-10-07T09:04:35.258Z,40.01
2022-10-07T09:07:34.695Z,40.87
2022-10-07T09:10:05.554Z,41.18
2022-10-07T09:12:44.949Z,40.70
2022-10-07T09:15:23.675Z,40.97
2022-10-07T09:17:56.907Z,40.66
2022-10-07T09:20:31.971Z,40.35
2022-10-07T09:23:00.727Z,40.19
2022-10-07T09:25:30.622Z,39.61
2022-10-07T09:27:58.405Z,40.09
2022-10-07T09:30:28.267Z,39.68
2022-10-07T09:32:57.457Z,39.48
2022-10-07T09:35:29.976Z,39.53
2022-10-07T09:38:10.322Z,39.93
2022-10-07T09:41:02.335Z,40.41
2022-10-07T09:43:32.796Z,39.73
2022-10-07T09:46:01.725Z,39.62
2022-10-07T09:48:34.056Z,39.87
2022-10-07T09:51:12.865Z,40.19
2022-10-07T09:53:59.664Z,40.55
2022-10-07T09:56:42.370Z,40.76
2022-10-07T09:59:23.397Z,45.16
2022-10-07T10:02:15.770Z,45.06
2022-10-07T10:04:55.489Z,46.17
2022-10-07T10:07:30.882Z,47.63
2022-10-07T10:10:27.978Z,55.42
2022-10-07T10:12:57.903Z,55.88
2022-10-07T10:15:25.218Z,60.27
2022-10-07T10:17:53.299Z,62.82
2022-10-07T10:20:26.796Z,64.42
2022-10-07T10:22:55.251Z,58.38
2022-10-07T10:25:53.145Z,64.27
2022-10-07T10:28:58.830Z,61.86
2022-10-07T10:31:50.972Z,59.91
2022-10-07T10:34:53.117Z,61.40
2022-10-07T10:37:42.179Z,59.13
2022-10-07T10:40:42.509Z,54.12
2022-10-07T10:43:26.646Z,53.45
2022-10-07T10:46:12.429Z,52.16
2022-10-07T10:48:53.744Z,50.41
2022-10-07T10:51:58.359Z,49.78
2022-10-07T10:54:31.829Z,50.03
2022-10-07T10:57:24.295Z,49.97
2022-10-07T11:00:08.505Z,49.58
2022-10-07T11:02:38.998Z,49.88
2022-10-07T11:05:25.754Z,51.19
2022-10-07T11:08:02.101Z,50.53
2022-10-07T11:10:43.753Z,50.88
2022-10-07T11:13:15.917Z,50.23
2022-10-07T11:15:53.919Z,51.20
2022-10-07T11:18:47.913Z,48.38
2022-10-07T11:21:40.759Z,50.27
2022-10-07T11:24:20.296Z,48.79
2022-10-07T11:27:10.733Z,50.30
2022-10-07T11:30:08.499Z,48.97
2022-10-07T11:32:46.042Z,49.76
2022-10-07T11:35:36.567Z,49.06
2022-10-07T11:38:15.587Z,48.82
2022-10-07T11:40:46.004Z,48.00
2022-10-07T11:43:34.023Z,48.19
2022-10-07T11:46:11.729Z,48.25
2022-10-07T11:49:19.164Z,47.73
2022-10-07T11:52:06.479Z,47.47
2022-10-07T11:55:09.992Z,46.67
2022-10-07T11:57:44.270Z,47.49
2022-10-07T12:00:33.328Z,47.77
2022-10-07T12:03:19.236Z,47.52
2022-10-07T12:05:49.678Z,50.38
2022-10-07T12:08:33.264Z,49.33
2022-10-07T12:11:13.067Z,48.14
2022-10-07T12:13:40.585Z,49.07
2022-10-07T12:16:31.764Z,48.70
2022-10-07T12:19:08.426Z,49.32
2022-10-07T12:22:00.434Z,49.08
2022-10-07T12:24:29.486Z,50.49
2022-10-07T12:27:18.472Z,50.78
2022-10-07T12:30:02.817Z,50.51
2022-10-07T12:32:45.959Z,52.74
2022-10-07T12:35:35.189Z,51.81
2022-10-07T12:38:14.465Z,51.75
2022-10-07T12:40:44.839Z,52.25
2022-10-07T12:43:36.701Z,51.36
2022-10-07T12:46:09.619Z,53.09
2022-10-07T12:48:45.424Z,54.79
2022-10-07T12:51:38.938Z,52.08
2022-10-07T12:54:26.597Z,53.57
2022-10-07T12:56:54.558Z,52.10
2022-10-07T12:59:49.177Z,51.72
2022-10-07T13:02:44.267Z,51.41
2022-10-07T13:05:17.569Z,52.23
2022-10-07T13:08:00.261Z,54.22
2022-10-07T13:11:04.626Z,54.95
2022-10-07T13:13:44.651Z,52.31
2022-10-07T13:16:41.288Z,50.83
2022-10-07T13:19:34.862Z,52.78
2022-10-07T13:22:19.766Z,52.98
2022-10-07T13:24:53.843Z,52.92
2022-10-07T13:27:26.797Z,54.22
2022-10-07T13:29:56.507Z,54.13
2022-10-07T13:32:31.685Z,55.00
2022-10-07T13:35:01.494Z,53.72
2022-10-07T13:37:38.788Z,52.54
2022-10-07T13:40:22.477Z,52.90
2022-10-07T13:43:01.414Z,54.16
2022-10-07T13:45:33.529Z,54.36
2022-10-07T13:48:01.059Z,53.96
2022-10-07T13:50:30.989Z,54.04
2022-10-07T13:52:59.327Z,54.35
2022-10-07T13:55:26.628Z,53.42
2022-10-07T13:57:57.532Z,54.44
2022-10-07T14:00:26.016Z,55.19
2022-10-07T14:02:54.045Z,54.91
2022-10-07T14:05:28.697Z,55.51
2022-10-07T14:07:58.709Z,55.77
2022-10-07T14:10:31.630Z,55.68
2022-10-07T14:13:03.571Z,54.24
2022-10-07T14:15:34.044Z,54.14
2022-10-07T14:18:13.529Z,52.21
2022-10-07T14:20:45.579Z,56.99
2022-10-07T14:23:28.449Z,54.57
2022-10-07T14:26:10.404Z,56.52
2022-10-07T14:28:39.200Z,56.34
2022-10-07T14:31:28.286Z,56.73
2022-10-07T14:34:36.407Z,55.37
2022-10-07T14:37:05.484Z,55.58
2022-10-07T14:39:45.116Z,57.96
2022-10-07T14:42:18.342Z,57.07
2022-10-07T14:44:46.109Z,56.52
2022-10-07T14:47:13.714Z,57.33
2022-10-07T14:49:42.585Z,57.31
2022-10-07T14:52:18.289Z,58.12
2022-10-07T14:54:46.048Z,57.62
2022-10-07T14:57:13.516Z,57.53
2022-10-07T14:59:41.035Z,56.05
2022-10-07T15:02:11.701Z,57.00
2022-10-07T15:04:40.496Z,55.50
2022-10-07T15:07:08.395Z,55.89
2022-10-07T15:09:35.793Z,56.59
2022-10-07T15:12:03.244Z,56.85
2022-10-07T15:14:30.658Z,56.20
2022-10-07T15:16:58.482Z,56.75
2022-10-07T15:19:26.712Z,57.05
2022-10-07T15:21:54.237Z,56.28
2022-10-07T15:24:21.647Z,57.14
2022-10-07T15:26:49.744Z,57.32
2022-10-07T15:29:17.207Z,57.06
2022-10-07T15:31:44.641Z,57.05
2022-10-07T15:34:14.210Z,57.22
2022-10-07T15:36:41.638Z,57.17
2022-10-07T15:39:10.374Z,58.42
2022-10-07T15:41:40.240Z,58.37
2022-10-07T15:44:17.043Z,57.98
2022-10-07T15:46:48.578Z,57.83
2022-10-07T15:49:19.768Z,57.25
2022-10-07T15:51:47.464Z,56.91
2022-10-07T15:54:15.135Z,57.06
2022-10-07T15:56:43.310Z,57.44
2022-10-07T15:59:21.061Z,58.18
2022-10-07T16:01:52.191Z,57.12
2022-10-07T16:04:20.496Z,57.09
2022-10-07T16:06:54.238Z,58.72
2022-10-07T16:09:22.910Z,58.97
2022-10-07T16:11:51.251Z,58.85
2022-10-07T16:14:18.778Z,58.87
2022-10-07T16:16:46.484Z,58.28
2022-10-07T16:19:14.162Z,58.97
2022-10-07T16:21:43.145Z,59.47
2022-10-07T16:24:18.897Z,61.75
2022-10-07T16:26:47.937Z,59.37
2022-10-07T16:29:39.179Z,60.71
2022-10-07T16:32:11.028Z,58.63
2022-10-07T16:34:42.142Z,58.73
2022-10-07T16:37:10.670Z,58.92
2022-10-07T16:39:38.371Z,59.54
2022-10-07T16:42:06.003Z,58.96
2022-10-07T16:44:33.467Z,59.42
2022-10-07T16:47:01.473Z,59.17
2022-10-07T16:49:30.603Z,58.79
2022-10-07T16:51:58.340Z,58.43
2022-10-07T16:54:26.097Z,58.08
2022-10-07T16:56:53.648Z,58.14
2022-10-07T16:59:24.175Z,58.68
2022-10-07T17:01:57.160Z,59.11
2022-10-07T17:04:25.297Z,58.08
2022-10-07T17:06:53.807Z,57.90
2022-10-07T17:09:22.306Z,57.80
2022-10-07T17:11:49.871Z,58.10
2022-10-07T17:14:19.819Z,57.96
2022-10-07T17:16:50.125Z,57.91
2022-10-07T17:19:23.027Z,59.47
2022-10-07T17:21:52.007Z,58.04
2022-10-07T17:24:22.159Z,57.49
2022-10-07T17:26:52.698Z,58.33
2022-10-07T17:29:21.706Z,58.85
2022-10-07T17:31:50.970Z,58.80
2022-10-07T17:34:20.913Z,59.21
2022-10-07T17:36:49.321Z,59.37
2022-10-07T17:39:17.596Z,59.79
2022-10-07T17:41:45.091Z,59.73
2022-10-07T17:44:13.247Z,59.76
2022-10-07T17:46:41.409Z,60.25
2022-10-07T17:49:13.614Z,60.07
2022-10-07T17:51:43.398Z,59.47
2022-10-07T17:54:14.008Z,59.66
2022-10-07T17:56:48.069Z,60.22
2022-10-07T17:59:16.614Z,59.74
2022-10-07T18:01:44.862Z,60.42
2022-10-07T18:04:22.520Z,60.75
2022-10-07T18:06:52.540Z,59.20
2022-10-07T18:09:22.079Z,59.36
2022-10-07T18:12:07.877Z,58.84
2022-10-07T18:14:54.556Z,58.82
2022-10-07T18:17:23.126Z,58.57
2022-10-07T18:19:51.112Z,58.96
2022-10-07T18:22:19.586Z,59.09
2022-10-07T18:24:46.978Z,59.31
2022-10-07T18:27:14.551Z,59.82
2022-10-07T18:29:41.943Z,59.28
2022-10-07T18:32:10.787Z,60.07
2022-10-07T18:34:38.287Z,59.42
2022-10-07T18:37:05.762Z,59.65
2022-10-07T18:39:33.441Z,59.00
2022-10-07T18:42:00.863Z,59.82
2022-10-07T18:44:29.470Z,59.02
2022-10-07T18:46:57.006Z,58.83
2022-10-07T18:49:24.847Z,59.26
2022-10-07T18:51:52.472Z,59.04
2022-10-07T18:54:20.689Z,59.33
2022-10-07T18:56:48.646Z,60.06
2022-10-07T18:59:16.757Z,59.93
2022-10-07T19:01:49.137Z,59.37
2022-10-07T19:04:18.035Z,58.95
2022-10-07T19:06:46.412Z,58.80
2022-10-07T19:09:16.992Z,59.62
2022-10-07T19:11:44.818Z,59.38
2022-10-07T19:14:12.915Z,59.44
2022-10-07T19:16:45.632Z,60.19
2022-10-07T19:19:20.099Z,61.60
2022-10-07T19:21:49.606Z,59.56
2022-10-07T19:24:17.231Z,60.12
2022-10-07T19:26:50.255Z,60.52
2022-10-07T19:29:18.641Z,59.90
2022-10-07T19:31:48.936Z,59.86
2022-10-07T19:34:19.288Z,59.77
2022-10-07T19:36:47.343Z,59.89
2022-10-07T19:39:18.893Z,60.28
2022-10-07T19:41:46.781Z,60.25
2022-10-07T19:44:15.558Z,59.95
2022-10-07T19:46:43.131Z,59.23
2022-10-07T19:49:11.032Z,58.85
2022-10-07T19:51:40.565Z,58.80
2022-10-07T19:54:13.259Z,58.81
2022-10-07T19:56:41.617Z,58.98
2022-10-07T19:59:14.261Z,58.51
2022-10-07T20:01:44.531Z,58.94
2022-10-07T20:04:15.360Z,58.37
2022-10-07T20:06:43.680Z,58.46
2022-10-07T20:09:14.490Z,58.17
2022-10-07T20:11:43.314Z,57.58
2022-10-07T20:14:10.816Z,58.02
2022-10-07T20:16:39.322Z,58.46
2022-10-07T20:19:11.456Z,58.64
2022-10-07T20:21:39.579Z,57.81
2022-10-07T20:24:08.727Z,58.67
2022-10-07T20:26:38.765Z,59.20
2022-10-07T20:29:08.196Z,58.68
2022-10-07T20:31:39.117Z,58.59
2022-10-07T20:34:12.482Z,60.02
2022-10-07T20:36:41.512Z,59.92
2022-10-07T20:39:37.146Z,59.53
2022-10-07T20:42:25.990Z,61.74
2022-10-07T20:44:53.898Z,62.29
2022-10-07T20:47:23.488Z,59.87
2022-10-07T20:49:51.800Z,59.01
2022-10-07T20:52:21.706Z,59.62
2022-10-07T20:54:50.012Z,58.36
2022-10-07T20:57:26.043Z,58.06
2022-10-07T20:59:53.947Z,58.28
2022-10-07T21:02:23.059Z,59.04
2022-10-07T21:04:50.714Z,58.90
2022-10-07T21:07:19.045Z,59.38
2022-10-07T21:09:47.344Z,58.15
2022-10-07T21:12:17.096Z,58.06
2022-10-07T21:14:45.112Z,58.12
2022-10-07T21:17:12.975Z,58.26
2022-10-07T21:19:40.513Z,58.94
2022-10-07T21:22:08.259Z,57.90
2022-10-07T21:24:36.232Z,58.03
2022-10-07T21:27:05.735Z,58.29
2022-10-07T21:29:37.440Z,57.74
2022-10-07T21:32:06.653Z,57.18
2022-10-07T21:34:34.030Z,58.01
2022-10-07T21:37:01.451Z,59.12
2022-10-07T21:39:29.210Z,59.07
2022-10-07T21:41:58.259Z,58.80
2022-10-07T21:44:27.093Z,59.16
2022-10-07T21:46:54.458Z,58.61
2022-10-07T21:49:21.862Z,59.23
2022-10-07T21:51:49.289Z,59.14
2022-10-07T21:54:16.775Z,62.07
2022-10-07T21:56:46.398Z,61.29
2022-10-07T21:59:14.528Z,61.90
2022-10-07T22:01:43.327Z,61.04
2022-10-07T22:04:17.479Z,62.68
2022-10-07T22:07:04.247Z,64.77
2022-10-07T22:09:32.114Z,63.44
2022-10-07T22:11:59.644Z,63.15
2022-10-07T22:14:27.933Z,63.20
2022-10-07T22:16:55.635Z,61.43
2022-10-07T22:19:23.297Z,61.25
2022-10-07T22:21:51.175Z,61.40
2022-10-07T22:24:18.610Z,62.78
2022-10-07T22:26:47.587Z,64.87
2022-10-07T22:29:16.969Z,66.27
2022-10-07T22:31:45.375Z,63.57
2022-10-07T22:34:33.001Z,64.27
2022-10-07T22:37:00.413Z,61.63
2022-10-07T22:39:29.764Z,63.64
2022-10-07T22:41:58.712Z,66.53
2022-10-07T22:44:28.349Z,65.32
2022-10-07T22:46:57.051Z,66.67
2022-10-07T22:49:29.314Z,65.53
2022-10-07T22:51:58.558Z,67.97
2022-10-07T22:54:26.860Z,66.89
2022-10-07T22:56:54.368Z,66.28
2022-10-07T22:59:21.839Z,65.76
2022-10-07T23:01:49.313Z,68.71
2022-10-07T23:04:18.847Z,70.06
2022-10-07T23:06:46.859Z,69.77
2022-10-07T23:09:14.289Z,68.13
2022-10-07T23:11:41.740Z,67.44
2022-10-07T23:14:09.174Z,68.15
2022-10-07T23:16:36.616Z,69.69
2022-10-07T23:19:04.036Z,68.40
2022-10-07T23:21:34.906Z,69.61
2022-10-07T23:24:07.807Z,70.08
2022-10-07T23:26:36.888Z,69.21
2022-10-07T23:29:05.164Z,70.48
2022-10-07T23:31:33.461Z,69.84
2022-10-07T23:34:02.303Z,71.65
2022-10-07T23:36:30.686Z,78.09
2022-10-07T23:39:00.144Z,77.23
2022-10-07T23:41:29.598Z,79.61
2022-10-07T23:43:59.770Z,82.40
2022-10-07T23:46:28.279Z,83.58
2022-10-07T23:48:58.883Z,84.43
2022-10-07T23:51:31.289Z,86.43
2022-10-07T23:54:03.519Z,88.37
2022-10-07T23:56:32.259Z,83.27
2022-10-07T23:59:00.828Z,81.30
